Time;durP1;ratioP1;P1;durP2;ratioP2;P2;SDS_P1;SDS_P2;PMS_P1;PMS_P2;Temp;Humidity;BMP_temperature;BMP_pressure;BME280_temperature;BME280_humidity;BME280_pressure;Samples;Min_cycle;Max_cycle;Signal;HPM_P1;HPM_P2
2023/04/01 00:00:20;;;;;;;5.18;1.40;;;;;;;12.22;69.05;99114.53;5121832;28;20059;-61
2023/04/01 00:02:48;;;;;;;3.78;1.70;;;;;;;12.19;68.53;99106.19;5118931;28;20043;-61
2023/04/01 00:05:17;;;;;;;5.97;1.42;;;;;;;12.16;68.69;99106.75;5117800;28;20058;-61
2023/04/01 00:07:45;;;;;;;5.82;1.33;;;;;;;12.15;68.69;99119.41;5121634;28;20036;-61
2023/04/01 00:10:13;;;;;;;2.45;1.10;;;;;;;12.15;68.90;99110.53;5122362;28;20370;-61
2023/04/01 00:12:41;;;;;;;4.60;1.50;;;;;;;12.15;68.84;99115.91;5121529;28;20052;-61
2023/04/01 00:15:11;;;;;;;5.32;1.33;;;;;;;12.13;68.79;99121.59;5121969;28;20075;-61
2023/04/01 00:17:40;;;;;;;5.80;1.45;;;;;;;12.11;69.07;99121.06;5121119;28;20047;-61
2023/04/01 00:20:09;;;;;;;5.47;1.55;;;;;;;12.12;69.21;99121.88;5120650;28;20115;-61
2023/04/01 00:22:37;;;;;;;2.78;1.27;;;;;;;12.12;69.21;99116.50;5118028;28;20055;-62
2023/04/01 00:25:05;;;;;;;6.68;2.15;;;;;;;12.10;69.12;99119.47;5122453;28;20058;-62
2023/04/01 00:27:33;;;;;;;6.75;1.73;;;;;;;12.09;69.10;99122.44;5116285;28;20128;-62
2023/04/01 00:30:01;;;;;;;2.30;1.00;;;;;;;12.09;69.20;99122.44;5119715;28;20107;-62
2023/04/01 00:32:30;;;;;;;3.58;1.60;;;;;;;12.09;69.13;99122.44;5120705;28;20043;-62
2023/04/01 00:34:59;;;;;;;3.90;1.00;;;;;;;12.08;68.91;99129.69;5121747;28;20062;-62
2023/04/01 00:37:28;;;;;;;3.63;1.17;;;;;;;12.08;68.78;99126.19;5112831;28;20119;-62
2023/04/01 00:39:56;;;;;;;4.57;1.10;;;;;;;12.07;69.03;99125.38;5121792;28;20107;-61
2023/04/01 00:42:25;;;;;;;4.60;1.38;;;;;;;12.07;69.08;99127.28;5116709;28;20063;-62
2023/04/01 00:44:55;;;;;;;3.22;0.93;;;;;;;12.01;69.03;99132.66;5120312;28;20524;-62
2023/04/01 00:47:25;;;;;;;3.83;1.30;;;;;;;12.03;69.37;99137.78;5111921;28;20059;-62
2023/04/01 00:49:55;;;;;;;3.20;1.00;;;;;;;12.10;69.57;99138.31;5121157;28;20052;-62
2023/04/01 00:52:26;;;;;;;6.20;1.92;;;;;;;12.05;69.28;99136.44;5118942;28;20142;-62
2023/04/01 00:55:00;;;;;;;2.05;0.80;;;;;;;12.03;69.44;99145.88;5121724;28;20071;-62
2023/04/01 00:57:34;;;;;;;1.48;0.75;;;;;;;12.00;69.45;99154.47;5114616;28;20047;-62
2023/04/01 01:00:02;;;;;;;4.07;1.08;;;;;;;11.99;69.73;99155.56;5117510;28;20082;-62
2023/04/01 01:02:32;;;;;;;3.78;1.80;;;;;;;11.97;69.81;99153.16;5119206;28;20054;-62
2023/04/01 01:05:00;;;;;;;2.33;1.15;;;;;;;11.97;69.49;99157.72;5121281;28;20120;-62
2023/04/01 01:07:38;;;;;;;1.83;1.10;;;;;;;11.96;69.23;99156.09;5119981;28;20161;-61
2023/04/01 01:10:12;;;;;;;1.70;0.63;;;;;;;11.96;69.51;99158.81;5117973;28;20547;-61
2023/04/01 01:12:45;;;;;;;1.17;0.77;;;;;;;11.96;69.88;99158.81;5121644;28;20051;-63
2023/04/01 01:15:20;;;;;;;1.25;0.68;;;;;;;11.96;69.68;99161.50;5115491;28;20571;-61
2023/04/01 01:17:56;;;;;;;1.83;0.88;;;;;;;11.95;69.49;99163.38;5121914;28;20065;-61
2023/04/01 01:20:41;;;;;;;5.60;1.17;;;;;;;11.93;69.74;99170.91;5122173;28;20048;-61
2023/04/01 01:23:54;;;;;;;2.85;1.00;;;;;;;11.91;69.55;99173.06;5116525;28;20043;-61
2023/04/01 01:26:41;;;;;;;1.02;0.73;;;;;;;11.90;69.89;99159.88;5120289;28;20062;-61
2023/04/01 01:29:18;;;;;;;3.42;0.98;;;;;;;11.89;69.51;99161.78;5120271;28;20054;-62
2023/04/01 01:31:56;;;;;;;1.38;0.60;;;;;;;11.90;69.51;99165.28;5107755;28;20126;-62
2023/04/01 01:34:35;;;;;;;2.10;1.00;;;;;;;11.87;69.72;99158.53;5111895;28;20131;-62
2023/04/01 01:37:11;;;;;;;0.95;0.82;;;;;;;11.87;69.96;99165.81;5118557;28;20044;-62
2023/04/01 01:39:41;;;;;;;3.10;1.03;;;;;;;11.87;70.07;99165.81;5122011;28;20055;-62
2023/04/01 01:42:14;;;;;;;0.93;0.65;;;;;;;11.88;69.76;99164.72;5120814;28;20070;-61
2023/04/01 01:44:45;;;;;;;1.88;0.88;;;;;;;11.87;69.80;99174.69;5119335;28;20051;-62
2023/04/01 01:47:15;;;;;;;1.95;0.68;;;;;;;11.87;70.20;99172.00;5118229;28;20335;-65
2023/04/01 01:49:44;;;;;;;1.17;0.90;;;;;;;11.87;69.98;99176.59;5121128;28;20051;-62
2023/04/01 01:52:14;;;;;;;2.15;0.90;;;;;;;11.86;70.31;99183.03;5117013;28;20568;-62
2023/04/01 01:54:48;;;;;;;1.17;0.60;;;;;;;11.85;69.98;99176.84;5119574;28;20504;-62
2023/04/01 01:57:18;;;;;;;1.27;0.60;;;;;;;11.85;70.18;99184.13;5116309;28;20048;-62
2023/04/01 01:59:49;;;;;;;2.70;0.98;;;;;;;11.85;70.23;99190.31;5118172;28;20043;-62
2023/04/01 02:02:18;;;;;;;1.05;0.60;;;;;;;11.83;70.42;99189.78;5118228;28;20044;-62
2023/04/01 02:04:47;;;;;;;2.60;1.38;;;;;;;11.84;70.08;99187.88;5119696;28;20086;-62
2023/04/01 02:07:21;;;;;;;2.78;1.05;;;;;;;11.82;70.02;99188.16;5116802;28;20290;-62
2023/04/01 02:09:50;;;;;;;1.77;1.05;;;;;;;11.82;69.94;99193.53;5120321;28;20075;-62
2023/04/01 02:12:20;;;;;;;1.80;1.10;;;;;;;11.83;70.20;99195.16;5118229;28;20071;-62
2023/04/01 02:14:53;;;;;;;1.73;1.00;;;;;;;11.83;70.06;99203.22;5116373;28;20083;-62
2023/04/01 02:17:23;;;;;;;1.88;1.27;;;;;;;11.83;70.42;99202.41;5118130;28;20147;-61
2023/04/01 02:19:54;;;;;;;1.85;1.27;;;;;;;11.82;69.87;99192.72;5116945;28;20432;-62
2023/04/01 02:22:27;;;;;;;2.38;1.00;;;;;;;11.81;70.11;99196.50;5114744;28;20118;-61
2023/04/01 02:24:59;;;;;;;1.02;0.75;;;;;;;11.81;69.90;99201.88;5119352;28;20067;-62
2023/04/01 02:27:26;;;;;;;2.65;1.20;;;;;;;11.78;70.33;99205.13;5115407;28;20079;-62
2023/04/01 02:29:54;;;;;;;1.45;1.30;;;;;;;11.78;70.38;99203.22;5117994;28;20058;-62
2023/04/01 02:32:22;;;;;;;1.70;0.90;;;;;;;11.77;70.36;99201.63;5118991;28;20108;-62
2023/04/01 02:34:50;;;;;;;1.90;1.48;;;;;;;11.77;70.08;99208.84;5113226;28;20047;-62
2023/04/01 02:37:18;;;;;;;2.83;1.30;;;;;;;11.76;69.98;99207.25;5120094;28;20110;-62
2023/04/01 02:39:47;;;;;;;1.92;1.20;;;;;;;11.76;70.27;99210.75;5118897;28;20063;-62
2023/04/01 02:42:15;;;;;;;4.68;1.67;;;;;;;11.74;70.18;99207.50;5120230;28;20036;-62
2023/04/01 02:44:43;;;;;;;2.00;1.48;;;;;;;11.74;70.11;99219.09;5115539;28;20079;-62
2023/04/01 02:47:11;;;;;;;3.30;1.60;;;;;;;11.74;69.96;99221.78;5111270;28;20082;-62
2023/04/01 02:49:38;;;;;;;2.85;1.75;;;;;;;11.72;70.47;99206.97;5119073;28;20119;-62
2023/04/01 02:52:06;;;;;;;2.58;1.67;;;;;;;11.71;70.06;99221.50;5116691;28;20043;-62
2023/04/01 02:54:34;;;;;;;3.95;2.05;;;;;;;11.71;70.28;99222.31;5116523;28;20052;-62
2023/04/01 02:57:03;;;;;;;3.30;1.75;;;;;;;11.69;70.26;99216.38;5120285;28;20115;-62
2023/04/01 02:59:31;;;;;;;3.50;2.03;;;;;;;11.70;70.23;99225.28;5112100;28;20068;-62
2023/04/01 03:01:59;;;;;;;3.15;1.90;;;;;;;11.68;70.49;99216.66;5119282;28;20045;-62
2023/04/01 03:04:26;;;;;;;4.55;1.70;;;;;;;11.69;70.10;99226.34;5118575;28;20044;-62
2023/04/01 03:06:55;;;;;;;5.28;1.67;;;;;;;11.66;70.71;99234.97;5116544;28;20123;-62
2023/04/01 03:09:22;;;;;;;4.10;1.85;;;;;;;11.65;70.46;99231.47;5119485;28;20055;-62
2023/04/01 03:11:50;;;;;;;4.63;1.95;;;;;;;11.66;70.47;99232.25;5113937;28;20074;-63
2023/04/01 03:14:19;;;;;;;4.10;2.28;;;;;;;11.64;70.62;99234.41;5118884;28;20075;-62
2023/04/01 03:16:47;;;;;;;4.05;1.90;;;;;;;11.66;70.60;99243.03;5120133;28;20080;-61
2023/04/01 03:19:15;;;;;;;2.70;1.80;;;;;;;11.65;70.77;99244.91;5118458;28;20054;-61
2023/04/01 03:21:43;;;;;;;2.75;1.77;;;;;;;11.64;70.67;99239.81;5120198;28;20051;-62
2023/04/01 03:24:10;;;;;;;6.13;1.98;;;;;;;11.63;70.50;99247.06;5117972;28;20111;-62
2023/04/01 03:26:38;;;;;;;3.20;1.40;;;;;;;11.63;70.74;99246.25;5120124;28;20075;-62
2023/04/01 03:29:06;;;;;;;4.38;2.03;;;;;;;11.62;70.82;99247.34;5112933;28;20050;-61
2023/04/01 03:31:35;;;;;;;3.22;1.60;;;;;;;11.61;71.06;99245.72;5120858;28;20131;-61
2023/04/01 03:34:03;;;;;;;2.72;1.73;;;;;;;11.61;71.21;99261.84;5115918;28;20135;-62
2023/04/01 03:36:30;;;;;;;3.42;1.83;;;;;;;11.60;71.26;99252.97;5119628;28;20062;-62
2023/04/01 03:38:58;;;;;;;2.65;2.00;;;;;;;11.59;71.12;99251.38;5110850;28;20063;-62
2023/04/01 03:41:26;;;;;;;2.22;1.52;;;;;;;11.61;70.73;99262.66;5118759;28;20078;-62
2023/04/01 03:43:54;;;;;;;2.03;1.33;;;;;;;11.59;71.09;99251.38;5113209;28;20050;-62
2023/04/01 03:46:23;;;;;;;2.30;1.40;;;;;;;11.57;70.71;99261.59;5115552;28;20054;-62
2023/04/01 03:48:52;;;;;;;2.67;1.50;;;;;;;11.59;71.06;99259.44;5113873;28;20074;-62
2023/04/01 03:51:20;;;;;;;3.80;1.55;;;;;;;11.59;70.91;99264.81;5118925;28;20063;-62
2023/04/01 03:53:48;;;;;;;2.95;1.50;;;;;;;11.57;71.14;99258.91;5118896;28;20086;-61
2023/04/01 03:56:15;;;;;;;2.88;1.60;;;;;;;11.58;71.07;99262.41;5118110;28;20051;-61
2023/04/01 03:58:43;;;;;;;2.78;1.42;;;;;;;11.58;71.23;99267.78;5107683;28;20418;-62
2023/04/01 04:01:19;;;;;;;3.38;1.48;;;;;;;11.57;71.12;99263.47;5098190;28;20066;-62
2023/04/01 04:03:48;;;;;;;2.92;1.70;;;;;;;11.55;71.46;99263.72;5095527;28;20044;-62
2023/04/01 04:06:19;;;;;;;2.47;1.42;;;;;;;11.55;71.21;99268.31;5093324;28;20143;-62
2023/04/01 04:08:47;;;;;;;1.95;1.50;;;;;;;11.55;71.22;99265.63;5108209;28;20039;-62
2023/04/01 04:11:15;;;;;;;3.75;2.15;;;;;;;11.54;71.26;99275.56;5109827;28;20134;-62
2023/04/01 04:13:43;;;;;;;2.10;1.70;;;;;;;11.52;71.24;99279.59;5118487;28;20062;-62
2023/04/01 04:16:12;;;;;;;1.75;1.52;;;;;;;11.52;71.07;99271.53;5113655;28;20047;-62
2023/04/01 04:18:39;;;;;;;3.22;2.20;;;;;;;11.51;71.33;99280.69;5115743;28;20135;-62
2023/04/01 04:21:07;;;;;;;3.40;2.10;;;;;;;11.50;71.09;99281.75;5118331;28;20050;-62
2023/04/01 04:23:37;;;;;;;2.55;1.90;;;;;;;11.47;71.31;99276.91;5110842;28;20051;-62
2023/04/01 04:26:06;;;;;;;3.78;2.60;;;;;;;11.43;71.61;99284.69;5114184;28;20050;-62
2023/04/01 04:28:34;;;;;;;3.35;2.53;;;;;;;11.43;71.67;99291.97;5111979;28;20048;-62
2023/04/01 04:31:04;;;;;;;5.70;3.13;;;;;;;11.41;71.93;99282.28;5122763;28;20135;-62
2023/04/01 04:33:32;;;;;;;4.22;2.67;;;;;;;11.41;71.83;99289.53;5118557;28;20059;-62
2023/04/01 04:36:00;;;;;;;3.25;2.67;;;;;;;11.43;71.35;99291.97;5121920;28;20122;-62
2023/04/01 04:38:28;;;;;;;3.72;2.65;;;;;;;11.43;71.48;99292.75;5119466;28;20043;-62
2023/04/01 04:40:57;;;;;;;3.42;2.55;;;;;;;11.43;71.44;99291.97;5119170;28;20134;-62
2023/04/01 04:43:25;;;;;;;3.75;2.47;;;;;;;11.44;71.43;99293.56;5116250;28;20055;-62
2023/04/01 04:45:53;;;;;;;4.10;3.05;;;;;;;11.42;71.44;99301.91;5121195;28;20043;-62
2023/04/01 04:48:20;;;;;;;3.53;2.30;;;;;;;11.42;71.29;99312.66;5119540;28;20082;-61
2023/04/01 04:50:49;;;;;;;3.90;2.75;;;;;;;11.41;71.32;99314.56;5122728;28;20043;-62
2023/04/01 04:53:19;;;;;;;3.70;2.75;;;;;;;11.42;71.36;99315.34;5102616;28;20437;-61
2023/04/01 04:55:48;;;;;;;4.10;2.80;;;;;;;11.40;71.18;99321.00;5118026;28;20062;-62
2023/04/01 04:58:18;;;;;;;4.43;2.70;;;;;;;11.36;71.61;99330.66;5118392;28;20074;-61
2023/04/01 05:00:46;;;;;;;3.28;2.33;;;;;;;11.36;71.51;99329.88;4765581;28;10000673;-61
2023/04/01 05:03:14;;;;;;;2.92;2.50;;;;;;;11.34;71.86;99332.00;5108187;28;20093;-61
2023/04/01 05:05:50;;;;;;;3.35;2.60;;;;;;;11.33;71.79;99333.88;5115454;28;20095;-61
2023/04/01 05:08:18;;;;;;;2.90;2.33;;;;;;;11.33;71.56;99333.09;5112555;28;20631;-61
2023/04/01 05:10:45;;;;;;;5.93;2.30;;;;;;;11.34;71.65;99337.38;5119598;28;20112;-61
2023/04/01 05:13:13;;;;;;;2.63;2.30;;;;;;;11.34;71.32;99335.50;5117844;28;20138;-61
2023/04/01 05:15:42;;;;;;;3.78;2.13;;;;;;;11.34;71.42;99346.25;5118308;28;20054;-61
2023/04/01 05:18:10;;;;;;;3.28;2.03;;;;;;;11.36;71.61;99344.13;5100299;28;20071;-61
2023/04/01 05:20:38;;;;;;;3.15;1.90;;;;;;;11.35;71.49;99353.25;5118522;28;20054;-61
2023/04/01 05:23:05;;;;;;;2.53;1.95;;;;;;;11.32;71.66;99350.28;5111767;28;20155;-61
2023/04/01 05:25:33;;;;;;;2.05;1.75;;;;;;;11.32;71.46;99353.78;5095739;28;20048;-61
2023/04/01 05:28:04;;;;;;;4.35;1.90;;;;;;;11.34;71.36;99353.53;5102646;27;20105;-62
2023/04/01 05:30:32;;;;;;;2.78;1.85;;;;;;;11.33;71.85;99363.47;5104434;28;20052;-62
2023/04/01 05:33:01;;;;;;;2.22;1.80;;;;;;;11.32;71.26;99366.44;5112530;28;20121;-63
2023/04/01 05:35:29;;;;;;;3.40;1.75;;;;;;;11.33;71.56;99368.03;5105346;28;20044;-63
2023/04/01 05:37:57;;;;;;;2.50;1.50;;;;;;;11.30;71.64;99368.56;5103591;28;20071;-63
2023/04/01 05:40:25;;;;;;;2.17;1.60;;;;;;;11.30;71.48;99374.75;5112718;28;20656;-63
2023/04/01 05:42:52;;;;;;;1.73;1.45;;;;;;;11.30;71.52;99374.75;5116484;28;20108;-63
2023/04/01 05:45:21;;;;;;;1.73;1.63;;;;;;;11.32;71.39;99377.19;5115193;28;20109;-62
2023/04/01 05:47:48;;;;;;;2.10;1.50;;;;;;;11.32;71.60;99387.94;5116054;28;20055;-62
2023/04/01 05:50:18;;;;;;;1.70;1.42;;;;;;;11.43;71.24;99399.56;5107444;28;20045;-61
2023/04/01 05:52:46;;;;;;;2.63;1.70;;;;;;;11.55;70.47;99386.69;5112256;28;20048;-62
2023/04/01 05:55:13;;;;;;;2.30;1.55;;;;;;;11.71;70.40;99397.25;5115053;28;20115;-62
2023/04/01 05:57:41;;;;;;;1.20;1.10;;;;;;;11.86;69.79;99393.00;5113593;28;20800;-63
2023/04/01 06:00:10;;;;;;;4.00;1.60;;;;;;;12.08;68.63;99400.84;5106378;28;20050;-62
2023/04/01 06:02:38;;;;;;;2.25;1.67;;;;;;;12.24;68.05;99397.06;5111238;28;20058;-60
2023/04/01 06:05:15;;;;;;;2.35;1.60;;;;;;;12.37;67.63;99410.03;5115394;28;20043;-61
2023/04/01 06:07:44;;;;;;;1.60;1.48;;;;;;;12.52;67.16;99411.91;5104417;28;20360;-60
2023/04/01 06:10:15;;;;;;;1.55;1.13;;;;;;;12.62;66.80;99418.09;5111122;28;20058;-60
2023/04/01 06:13:03;;;;;;;1.35;1.23;;;;;;;12.58;66.70;99422.41;5102834;28;20116;-59
2023/04/01 06:15:40;;;;;;;1.77;1.30;;;;;;;12.49;66.75;99428.63;5116300;28;20423;-60
2023/04/01 06:18:33;;;;;;;;;;;;;;;12.37;67.30;99428.88;5114944;28;20151;-60
2023/04/01 06:21:07;;;;;;;2.33;1.80;;;;;;;12.16;68.45;99432.63;5114238;28;20023;-62
2023/04/01 06:23:52;;;;;;;1.90;1.60;;;;;;;12.02;68.71;99437.75;5112680;28;20106;-61
2023/04/01 06:26:30;;;;;;;2.88;1.55;;;;;;;11.90;69.49;99442.56;5104422;28;20058;-62
2023/04/01 06:29:17;;;;;;;1.45;1.30;;;;;;;11.81;69.48;99444.94;5115538;28;20570;-63
2023/04/01 06:32:08;;;;;;;2.00;1.65;;;;;;;11.74;69.81;99447.03;5117303;28;20114;-61
2023/04/01 06:34:51;;;;;;;3.83;1.67;;;;;;;11.67;70.16;99455.34;5117131;28;20048;-60
2023/04/01 06:37:44;;;;;;;3.30;1.75;;;;;;;11.65;70.38;99456.69;5113165;28;20101;-61
2023/04/01 06:40:45;;;;;;;1.80;1.33;;;;;;;11.61;70.36;99458.28;5106223;28;20107;-63
2023/04/01 06:43:20;;;;;;;2.03;1.50;;;;;;;11.58;70.44;99456.13;5106450;28;20232;-63
2023/04/01 06:45:55;;;;;;;2.38;1.65;;;;;;;11.47;70.97;99465.22;5105626;28;20468;-64
2023/04/01 06:48:39;;;;;;;7.05;2.00;;;;;;;11.34;72.05;99472.69;5103389;28;20063;-62
2023/04/01 06:51:19;;;;;;;1.92;1.67;;;;;;;11.36;72.01;99470.53;5116293;28;20119;-62
2023/04/01 06:53:55;;;;;;;2.40;1.70;;;;;;;11.34;71.97;99467.31;5108055;28;20054;-62
2023/04/01 06:56:27;;;;;;;2.60;2.00;;;;;;;11.40;71.65;99479.72;5111937;28;20111;-62
2023/04/01 06:58:59;;;;;;;2.60;1.60;;;;;;;11.41;71.62;99478.63;5115931;28;20328;-62
2023/04/01 07:01:31;;;;;;;2.13;1.60;;;;;;;11.41;71.86;99485.91;5117129;28;20098;-62
2023/04/01 07:04:03;;;;;;;2.22;1.85;;;;;;;11.39;71.87;99488.84;5112477;28;20035;-62
2023/04/01 07:06:33;;;;;;;3.95;1.90;;;;;;;11.37;71.89;99482.91;5110419;28;20157;-62
2023/04/01 07:09:05;;;;;;;3.38;2.25;;;;;;;11.33;72.35;99500.66;5102165;28;20623;-62
2023/04/01 07:11:36;;;;;;;3.28;2.25;;;;;;;11.35;72.25;99492.31;5111620;28;20047;-62
2023/04/01 07:14:13;;;;;;;3.25;2.67;;;;;;;11.35;72.09;99500.38;5110783;28;20075;-62
2023/04/01 07:16:44;;;;;;;2.70;2.30;;;;;;;11.35;72.27;99503.09;5107222;28;20050;-62
2023/04/01 07:19:19;;;;;;;4.40;3.35;;;;;;;11.35;71.88;99503.88;5114692;28;20069;-62
2023/04/01 07:21:50;;;;;;;3.05;2.47;;;;;;;11.35;72.19;99511.16;5114738;28;20050;-62
2023/04/01 07:24:24;;;;;;;3.50;2.78;;;;;;;11.34;72.33;99517.59;5107617;28;20047;-62
2023/04/01 07:26:56;;;;;;;4.75;3.17;;;;;;;11.33;72.31;99524.03;5109570;28;20152;-62
2023/04/01 07:29:25;;;;;;;3.53;2.70;;;;;;;11.32;72.43;99527.81;5110858;28;20515;-62
2023/04/01 07:32:22;;;;;;;5.07;3.60;;;;;;;11.32;72.29;99527.81;5115171;28;20044;-62
2023/04/01 07:35:14;;;;;;;5.37;4.00;;;;;;;11.33;72.43;99532.13;5112076;28;20079;-62
2023/04/01 07:37:51;;;;;;;5.72;3.92;;;;;;;11.34;72.67;99539.13;5110081;28;20289;-62
2023/04/01 07:40:29;;;;;;;6.10;4.47;;;;;;;11.33;72.68;99541.00;5092939;28;20063;-63
2023/04/01 07:43:15;;;;;;;5.78;4.40;;;;;;;11.33;72.62;99542.88;5091360;28;20536;-63
2023/04/01 07:45:49;;;;;;;7.00;5.05;;;;;;;11.32;72.72;99543.94;5106162;28;20063;-63
2023/04/01 07:48:27;;;;;;;6.47;5.25;;;;;;;11.34;72.47;99547.19;5115823;28;20051;-63
2023/04/01 07:51:02;;;;;;;9.13;6.00;;;;;;;11.30;72.85;99559.53;5112957;28;20419;-63
2023/04/01 07:53:37;;;;;;;9.00;6.47;;;;;;;11.25;73.31;99543.34;5119537;28;20619;-63
2023/04/01 07:56:10;;;;;;;8.25;6.00;;;;;;;11.32;72.78;99552.00;5118453;28;20162;-63
2023/04/01 07:58:52;;;;;;;8.45;6.20;;;;;;;11.28;72.61;99554.41;5119591;28;20086;-61
2023/04/01 08:01:28;;;;;;;8.75;7.38;;;;;;;11.28;73.11;99562.47;5120218;28;20058;-62
2023/04/01 08:04:14;;;;;;;11.82;7.25;;;;;;;11.28;73.26;99569.72;5107857;28;20524;-63
2023/04/01 08:06:48;;;;;;;13.23;7.55;;;;;;;11.28;73.26;99570.53;5119025;28;20471;-63
2023/04/01 08:09:26;;;;;;;9.88;6.95;;;;;;;11.30;72.88;99572.97;5120509;28;20067;-63
2023/04/01 08:12:04;;;;;;;10.07;7.70;;;;;;;11.31;73.27;99580.78;5111757;28;20504;-63
2023/04/01 08:14:43;;;;;;;10.45;6.78;;;;;;;11.32;73.25;99587.78;5105240;28;20120;-63
2023/04/01 08:17:18;;;;;;;11.15;8.20;;;;;;;11.33;73.16;99585.91;5096241;28;20871;-64
2023/04/01 08:20:00;;;;;;;14.80;8.77;;;;;;;11.21;74.36;99602.22;5100539;28;20078;-63
2023/04/01 08:22:33;;;;;;;15.73;8.65;;;;;;;11.22;74.39;99603.84;5092274;28;20272;-63
2023/04/01 08:25:07;;;;;;;20.30;8.95;;;;;;;11.25;74.25;99605.22;5099510;28;20044;-62
2023/04/01 08:27:40;;;;;;;16.23;9.00;;;;;;;11.27;74.30;99606.56;5096873;28;20058;-62
2023/04/01 08:30:19;;;;;;;15.30;9.63;;;;;;;11.30;74.09;99616.00;5114841;28;20115;-62
2023/04/01 08:32:53;;;;;;;14.52;8.80;;;;;;;11.32;73.69;99597.75;5117075;28;20568;-62
2023/04/01 08:35:28;;;;;;;17.95;10.13;;;;;;;11.33;73.77;99602.06;5114093;28;20101;-63
2023/04/01 08:38:07;;;;;;;17.65;9.10;;;;;;;11.35;73.80;99606.09;5115402;28;20486;-64
2023/04/01 08:40:57;;;;;;;16.40;8.77;;;;;;;11.38;73.90;99610.16;5090146;28;20052;-64
2023/04/01 08:43:42;;;;;;;15.80;9.00;;;;;;;11.38;74.21;99619.03;5101781;28;20169;-63
2023/04/01 08:46:38;;;;;;;13.27;8.23;;;;;;;11.38;74.08;99623.59;5104098;28;20367;-63
2023/04/01 08:49:17;;;;;;;15.30;8.48;;;;;;;11.41;74.21;99620.41;5095739;28;20044;-62
2023/04/01 08:52:19;;;;;;;15.45;9.48;;;;;;;11.40;74.11;99633.03;5104629;28;20043;-62
2023/04/01 08:55:25;;;;;;;17.73;8.32;;;;;;;11.41;74.01;99641.94;5105023;28;20083;-61
2023/04/01 08:58:16;;;;;;;11.05;7.22;;;;;;;11.41;74.20;99640.06;5031012;28;20534;-61
2023/04/01 09:00:50;;;;;;;12.65;7.35;;;;;;;11.43;73.74;99645.19;5033625;28;20101;-60
2023/04/01 09:03:40;;;;;;;13.77;7.80;;;;;;;11.46;73.94;99657.31;5033527;28;20048;-60
2023/04/01 09:06:27;;;;;;;10.63;6.80;;;;;;;11.51;73.25;99654.66;5031440;28;20108;-61
2023/04/01 09:09:14;;;;;;;11.65;7.50;;;;;;;11.50;73.61;99661.09;5033714;28;20064;-61
2023/04/01 09:12:00;;;;;;;15.33;6.97;;;;;;;11.50;73.47;99666.47;5035092;28;20053;-61
2023/04/01 09:14:46;;;;;;;13.40;7.03;;;;;;;11.46;73.56;99668.88;5033746;28;20294;-61
2023/04/01 09:17:54;;;;;;;11.70;7.18;;;;;;;11.47;73.66;99670.50;5032800;28;20223;-61
2023/04/01 09:20:53;;;;;;;10.07;5.68;;;;;;;11.49;73.27;99676.44;5029268;28;20482;-60
2023/04/01 09:23:52;;;;;;;11.98;6.10;;;;;;;11.49;73.62;99673.75;5026734;28;20518;-61
2023/04/01 09:26:35;;;;;;;11.00;5.65;;;;;;;11.49;73.52;99679.13;5032703;28;20147;-61
2023/04/01 09:29:15;;;;;;;13.73;6.93;;;;;;;11.46;73.60;99676.94;5031266;28;20064;-61
2023/04/01 09:32:16;;;;;;;7.93;5.55;;;;;;;11.40;73.74;99684.16;5030446;28;20053;-61
2023/04/01 09:34:55;;;;;;;8.93;5.90;;;;;;;11.43;73.91;99696.28;5090025;28;20051;-61
2023/04/01 09:37:34;;;;;;;11.63;5.10;;;;;;;11.43;73.96;99693.59;5097825;28;20059;-61
2023/04/01 09:40:22;;;;;;;8.63;5.63;;;;;;;11.45;73.95;99687.97;5089251;28;20550;-60
2023/04/01 09:43:30;;;;;;;10.10;5.72;;;;;;;11.46;74.19;99701.16;5095391;28;20135;-61
2023/04/01 09:46:19;;;;;;;8.23;5.30;;;;;;;11.47;74.04;99697.41;5053070;28;20051;-59
2023/04/01 09:49:20;;;;;;;8.63;4.40;;;;;;;11.48;73.98;99706.28;5052395;28;20041;-60
2023/04/01 09:52:02;;;;;;;6.38;4.03;;;;;;;11.46;73.86;99706.53;5045747;28;20060;-59
2023/04/01 09:54:44;;;;;;;8.77;4.47;;;;;;;11.44;74.08;99707.84;5051073;28;20136;-60
2023/04/01 09:58:06;;;;;;;8.63;4.28;;;;;;;11.48;74.72;99717.84;5049098;28;20060;-60
2023/04/01 10:01:01;;;;;;;5.82;4.00;;;;;;;11.52;74.07;99718.97;4945227;29;20078;-60
2023/04/01 10:04:03;;;;;;;8.75;3.63;;;;;;;11.49;73.96;99721.34;4948185;29;20090;-60
2023/04/01 10:07:06;;;;;;;6.43;3.95;;;;;;;11.53;73.98;99717.09;4950981;29;20062;-61
2023/04/01 10:10:10;;;;;;;5.70;3.75;;;;;;;11.52;73.83;99715.47;4937270;29;20059;-59
2023/04/01 10:13:17;;;;;;;5.57;3.60;;;;;;;11.54;74.01;99724.09;4948372;29;20627;-61
2023/04/01 10:16:36;;;;;;;5.80;4.20;;;;;;;11.53;73.81;99728.66;4952034;28;20083;-60
2023/04/01 10:19:29;;;;;;;6.28;3.92;;;;;;;11.54;73.87;99738.38;4991187;28;20105;-60
2023/04/01 10:22:15;;;;;;;7.20;4.63;;;;;;;11.57;73.74;99739.72;5006124;28;20046;-60
2023/04/01 10:25:03;;;;;;;6.68;4.47;;;;;;;11.59;73.69;99740.28;5010178;28;20082;-60
2023/04/01 10:27:58;;;;;;;6.03;4.15;;;;;;;11.60;73.45;99744.59;4990255;28;20073;-60
2023/04/01 10:31:03;;;;;;;6.25;4.13;;;;;;;11.60;73.78;99742.72;5012907;28;20432;-60
2023/04/01 10:34:09;;;;;;;7.97;3.97;;;;;;;11.50;73.75;99737.25;5008557;28;20100;-60
2023/04/01 10:36:53;;;;;;;8.90;4.45;;;;;;;11.55;73.58;99750.75;5068838;28;20044;-60
2023/04/01 10:39:39;;;;;;;7.55;4.50;;;;;;;11.55;73.79;99750.75;5093668;28;20044;-60
2023/04/01 10:42:46;;;;;;;7.55;4.82;;;;;;;11.58;73.60;99752.13;5082930;28;20151;-62
2023/04/01 10:45:39;;;;;;;7.32;4.30;;;;;;;11.61;73.49;99754.31;5086627;28;20075;-62
2023/04/01 10:48:32;;;;;;;5.30;3.45;;;;;;;11.62;73.34;99758.63;5094841;28;20102;-61
2023/04/01 10:51:16;;;;;;;6.93;4.70;;;;;;;11.62;73.13;99762.13;5087166;28;20052;-61
2023/04/01 10:54:02;;;;;;;6.15;4.43;;;;;;;11.54;73.30;99767.97;5093416;28;20116;-61
2023/04/01 10:56:50;;;;;;;9.85;4.72;;;;;;;11.53;73.38;99762.84;5085785;28;20135;-61
2023/04/01 10:59:36;;;;;;;5.15;3.92;;;;;;;11.53;73.30;99766.34;5089043;28;20059;-62
2023/04/01 11:02:43;;;;;;;5.25;4.10;;;;;;;11.53;73.38;99771.72;5090600;28;20058;-61
2023/04/01 11:05:47;;;;;;;8.00;4.70;;;;;;;11.54;73.45;99776.03;5091886;28;20090;-60
2023/04/01 11:08:52;;;;;;;6.22;3.95;;;;;;;11.59;73.40;99776.09;5098177;28;20115;-60
2023/04/01 11:11:56;;;;;;;5.90;3.88;;;;;;;11.61;73.25;99768.56;5103240;28;20062;-60
2023/04/01 11:14:55;;;;;;;6.63;4.38;;;;;;;11.64;73.30;99778.00;5071202;28;20447;-61
2023/04/01 11:17:59;;;;;;;6.28;3.72;;;;;;;11.63;73.25;99782.59;5115638;28;20306;-61
2023/04/01 11:20:52;;;;;;;6.82;4.30;;;;;;;11.65;73.02;99785.84;5114727;28;20431;-62
2023/04/01 11:23:43;;;;;;;6.07;4.13;;;;;;;11.65;73.21;99788.53;5110784;28;20323;-62
2023/04/01 11:26:45;;;;;;;5.95;4.10;;;;;;;11.64;73.14;99791.47;5102434;28;20047;-61
2023/04/01 11:29:33;;;;;;;6.22;3.80;;;;;;;11.65;73.17;99793.09;5109157;28;20044;-61
2023/04/01 11:32:15;;;;;;;6.60;3.28;;;;;;;11.65;73.18;99798.47;5095631;28;20044;-62
2023/04/01 11:34:58;;;;;;;5.05;3.33;;;;;;;11.65;73.01;99806.56;5115726;28;20044;-62
2023/04/01 11:37:37;;;;;;;5.55;3.55;;;;;;;11.63;72.89;99806.81;5119137;28;20112;-62
2023/04/01 11:40:24;;;;;;;4.88;3.08;;;;;;;11.61;73.42;99808.13;5118234;28;20251;-62
2023/04/01 11:43:01;;;;;;;4.78;3.15;;;;;;;11.62;73.31;99807.88;5120071;28;20203;-62
2023/04/01 11:45:37;;;;;;;5.00;3.35;;;;;;;11.67;73.31;99813.31;5116188;28;20538;-62
2023/04/01 11:48:35;;;;;;;5.80;3.50;;;;;;;11.70;73.36;99818.19;5111481;28;20075;-62
2023/04/01 11:51:10;;;;;;;;;;;;;;;11.74;73.34;99823.88;5115492;28;20081;-62
2023/04/01 11:53:49;;;;;;;5.80;3.45;;;;;;;11.79;72.88;99828.50;5119940;28;19959;-61
2023/04/01 11:56:40;;;;;;;6.32;3.63;;;;;;;11.79;73.07;99823.94;5115650;28;20040;-61
2023/04/01 11:59:40;;;;;;;5.65;3.50;;;;;;;11.81;72.86;99823.69;5111953;28;20043;-61
2023/04/01 12:02:17;;;;;;;5.15;2.97;;;;;;;11.79;72.62;99834.72;5117667;28;20100;-61
2023/04/01 12:04:59;;;;;;;6.90;2.95;;;;;;;11.78;72.98;99833.09;5112129;28;20531;-61
2023/04/01 12:07:46;;;;;;;4.18;2.78;;;;;;;11.80;72.65;99843.59;5099106;28;20091;-61
2023/04/01 12:10:21;;;;;;;5.63;2.90;;;;;;;11.78;72.78;99846.53;5098181;28;20040;-61
2023/04/01 12:12:59;;;;;;;5.15;3.22;;;;;;;11.74;72.98;99824.69;5094633;28;20040;-60
2023/04/01 12:15:37;;;;;;;4.18;2.88;;;;;;;11.84;72.67;99836.63;5087218;28;20076;-61
2023/04/01 12:18:13;;;;;;;;;;;;;;;11.92;73.04;99847.75;5100100;28;20076;-62
2023/04/01 12:20:50;;;;;;;4.38;2.60;;;;;;;12.08;72.03;99854.09;5094148;28;20026;-61